Elmwood, Louisiana
Current Conditions -  °F | °C
As of 3:53 PM on Saturday 20 Dec 2014 (Local Time) from KMSY Reporting Station
Overcast Overcast  
Wind Chill: 52°   Ceiling: 900
Heat Index: 52°   Visibility: 10mi
Dew Point: 48°   Wind: 14mph
Humidity: 86%   Direction: 10°N
Pressure: 30.12"   Gusts: NA
Location:  29.9536°N, 90.2034°W
Report Text: KMSY 202153Z 01012KT 10SM OVC009 11/09 A3012 RMK AO2 SLP201 T01110089
Loading
Personal Weather Stations






























Interactive Weather Map New forecast layout! Learn more

10-Day Weather Forecast

Advertisements
Track Severe Weather on mobile